Harpswell, Maine
Current Conditions -  °F | °C
As of 6:51 PM on Wednesday 22 Oct 2014 (Local Time) from KPWM Reporting Station
Overcast Overcast  
Wind Chill: 50°   Ceiling: 1100
Heat Index: 50°   Visibility: 9mi
Dew Point: 46°   Wind: 18mph
Humidity: 86%   Direction: 30°NNE
Pressure: 30.05"   Gusts: 35mph
Location:  43.74°N, 70.01°W
Report Text: KPWM 222251Z 03016G30KT 9SM OVC011 10/08 A3005 RMK AO2 PK WND 04032/2213 SLP174 T01000078
Loading
Personal Weather Stations






























Interactive Weather Map
Tropical Storm Tracking
New forecast layout! Learn more

10-Day Weather Forecast

Advertisements
Track Severe Weather on mobile